sensor_id;sensor_type;location;lat;lon;timestamp;temperature;humidity
23544;DHT22;11950;51.230;4.012;2023-06-19T00:01:27;21.70;99.90
23544;DHT22;11950;51.230;4.012;2023-06-19T00:03:53;21.70;99.90
23544;DHT22;11950;51.230;4.012;2023-06-19T00:06:19;21.70;99.90
23544;DHT22;11950;51.230;4.012;2023-06-19T00:08:46;21.70;99.90
23544;DHT22;11950;51.230;4.012;2023-06-19T00:11:12;21.70;99.90
23544;DHT22;11950;51.230;4.012;2023-06-19T00:13:38;21.80;99.90
23544;DHT22;11950;51.230;4.012;2023-06-19T00:16:05;21.80;99.90
23544;DHT22;11950;51.230;4.012;2023-06-19T00:18:31;21.70;99.90
23544;DHT22;11950;51.230;4.012;2023-06-19T00:21:07;21.70;99.90
23544;DHT22;11950;51.230;4.012;2023-06-19T00:23:34;21.80;99.90
23544;DHT22;11950;51.230;4.012;2023-06-19T00:26:00;21.80;99.90
23544;DHT22;11950;51.230;4.012;2023-06-19T00:28:30;21.70;99.90
23544;DHT22;11950;51.230;4.012;2023-06-19T00:30:56;21.70;99.90
23544;DHT22;11950;51.230;4.012;2023-06-19T00:33:23;21.70;99.90
23544;DHT22;11950;51.230;4.012;2023-06-19T00:35:52;21.70;99.90
23544;DHT22;11950;51.230;4.012;2023-06-19T00:38:20;21.60;99.90
23544;DHT22;11950;51.230;4.012;2023-06-19T00:40:47;21.70;99.90
23544;DHT22;11950;51.230;4.012;2023-06-19T00:43:13;21.70;99.90
23544;DHT22;11950;51.230;4.012;2023-06-19T00:45:39;21.70;99.90
23544;DHT22;11950;51.230;4.012;2023-06-19T00:48:06;21.70;99.90
23544;DHT22;11950;51.230;4.012;2023-06-19T00:50:32;21.70;99.90
23544;DHT22;11950;51.230;4.012;2023-06-19T00:52:59;21.70;99.90
23544;DHT22;11950;51.230;4.012;2023-06-19T00:55:29;21.70;99.90
23544;DHT22;11950;51.230;4.012;2023-06-19T00:57:59;21.70;99.90
23544;DHT22;11950;51.230;4.012;2023-06-19T01:00:26;21.70;99.90
23544;DHT22;11950;51.230;4.012;2023-06-19T01:02:52;21.70;99.90
23544;DHT22;11950;51.230;4.012;2023-06-19T01:05:19;21.70;99.90
23544;DHT22;11950;51.230;4.012;2023-06-19T01:08:14;21.70;99.90
23544;DHT22;11950;51.230;4.012;2023-06-19T01:10:49;21.70;99.90
23544;DHT22;11950;51.230;4.012;2023-06-19T01:13:37;21.70;99.90
23544;DHT22;11950;51.230;4.012;2023-06-19T01:16:04;21.80;99.90
23544;DHT22;11950;51.230;4.012;2023-06-19T01:18:33;21.70;99.90
23544;DHT22;11950;51.230;4.012;2023-06-19T01:21:20;21.70;99.90
23544;DHT22;11950;51.230;4.012;2023-06-19T01:23:47;21.80;99.90
23544;DHT22;11950;51.230;4.012;2023-06-19T01:26:13;21.70;99.90
23544;DHT22;11950;51.230;4.012;2023-06-19T01:28:41;21.70;99.90
23544;DHT22;11950;51.230;4.012;2023-06-19T01:31:22;21.70;99.90
23544;DHT22;11950;51.230;4.012;2023-06-19T01:33:52;21.70;99.90
23544;DHT22;11950;51.230;4.012;2023-06-19T01:36:19;21.70;99.90
23544;DHT22;11950;51.230;4.012;2023-06-19T01:38:47;21.70;99.90
23544;DHT22;11950;51.230;4.012;2023-06-19T01:41:15;21.70;99.90
23544;DHT22;11950;51.230;4.012;2023-06-19T01:43:42;21.70;99.90
23544;DHT22;11950;51.230;4.012;2023-06-19T01:46:09;21.80;99.90
23544;DHT22;11950;51.230;4.012;2023-06-19T01:48:37;21.70;99.90
23544;DHT22;11950;51.230;4.012;2023-06-19T01:51:06;21.70;99.90
23544;DHT22;11950;51.230;4.012;2023-06-19T01:53:33;21.70;99.90
23544;DHT22;11950;51.230;4.012;2023-06-19T01:56:01;21.80;99.90
23544;DHT22;11950;51.230;4.012;2023-06-19T01:58:29;21.70;99.90
23544;DHT22;11950;51.230;4.012;2023-06-19T02:00:55;21.70;99.90
23544;DHT22;11950;51.230;4.012;2023-06-19T02:03:22;21.70;99.90
23544;DHT22;11950;51.230;4.012;2023-06-19T02:05:48;21.70;99.90
23544;DHT22;11950;51.230;4.012;2023-06-19T02:08:14;21.70;99.90
23544;DHT22;11950;51.230;4.012;2023-06-19T02:10:40;21.70;99.90
23544;DHT22;11950;51.230;4.012;2023-06-19T02:13:07;21.70;99.90
23544;DHT22;11950;51.230;4.012;2023-06-19T02:15:33;21.80;99.90
23544;DHT22;11950;51.230;4.012;2023-06-19T02:17:59;21.70;99.90
23544;DHT22;11950;51.230;4.012;2023-06-19T02:20:26;21.70;99.90
23544;DHT22;11950;51.230;4.012;2023-06-19T02:22:56;21.70;99.90
23544;DHT22;11950;51.230;4.012;2023-06-19T02:25:22;21.70;99.90
23544;DHT22;11950;51.230;4.012;2023-06-19T02:27:48;21.70;99.90
23544;DHT22;11950;51.230;4.012;2023-06-19T02:30:15;21.60;99.90
23544;DHT22;11950;51.230;4.012;2023-06-19T02:32:41;21.70;99.90
23544;DHT22;11950;51.230;4.012;2023-06-19T02:35:10;21.60;99.90
23544;DHT22;11950;51.230;4.012;2023-06-19T02:37:36;21.60;99.90
23544;DHT22;11950;51.230;4.012;2023-06-19T02:40:04;21.60;99.90
23544;DHT22;11950;51.230;4.012;2023-06-19T02:42:32;21.60;99.90
23544;DHT22;11950;51.230;4.012;2023-06-19T02:45:00;21.60;99.90
23544;DHT22;11950;51.230;4.012;2023-06-19T02:47:33;21.60;99.90
23544;DHT22;11950;51.230;4.012;2023-06-19T02:50:00;21.60;99.90
23544;DHT22;11950;51.230;4.012;2023-06-19T02:52:27;21.60;99.90
23544;DHT22;11950;51.230;4.012;2023-06-19T02:54:53;21.60;99.90
23544;DHT22;11950;51.230;4.012;2023-06-19T02:57:20;21.60;99.90
23544;DHT22;11950;51.230;4.012;2023-06-19T02:59:46;21.50;99.90
23544;DHT22;11950;51.230;4.012;2023-06-19T03:02:14;21.50;99.90
23544;DHT22;11950;51.230;4.012;2023-06-19T03:04:43;21.50;99.90
23544;DHT22;11950;51.230;4.012;2023-06-19T03:07:10;21.50;99.90
23544;DHT22;11950;51.230;4.012;2023-06-19T03:09:37;21.40;99.90
23544;DHT22;11950;51.230;4.012;2023-06-19T03:12:04;21.40;99.90
23544;DHT22;11950;51.230;4.012;2023-06-19T03:14:30;21.40;99.90
23544;DHT22;11950;51.230;4.012;2023-06-19T03:16:57;21.40;99.90
23544;DHT22;11950;51.230;4.012;2023-06-19T03:19:23;21.40;99.90
23544;DHT22;11950;51.230;4.012;2023-06-19T03:21:51;21.40;99.90
23544;DHT22;11950;51.230;4.012;2023-06-19T03:24:17;21.40;99.90
23544;DHT22;11950;51.230;4.012;2023-06-19T03:26:44;21.30;99.90
23544;DHT22;11950;51.230;4.012;2023-06-19T03:29:10;21.20;99.90
23544;DHT22;11950;51.230;4.012;2023-06-19T03:31:49;21.20;99.90
23544;DHT22;11950;51.230;4.012;2023-06-19T03:34:18;21.20;99.90
23544;DHT22;11950;51.230;4.012;2023-06-19T03:36:44;21.20;99.90
23544;DHT22;11950;51.230;4.012;2023-06-19T03:39:10;21.10;99.90
23544;DHT22;11950;51.230;4.012;2023-06-19T03:41:38;21.10;99.90
23544;DHT22;11950;51.230;4.012;2023-06-19T03:44:04;21.00;99.90
23544;DHT22;11950;51.230;4.012;2023-06-19T03:46:30;21.00;99.90
23544;DHT22;11950;51.230;4.012;2023-06-19T03:48:57;21.00;99.90
23544;DHT22;11950;51.230;4.012;2023-06-19T03:51:23;20.90;99.90
23544;DHT22;11950;51.230;4.012;2023-06-19T03:53:49;21.00;99.90
23544;DHT22;11950;51.230;4.012;2023-06-19T03:56:17;20.90;99.90
23544;DHT22;11950;51.230;4.012;2023-06-19T03:58:43;20.80;99.90
23544;DHT22;11950;51.230;4.012;2023-06-19T04:01:09;20.70;99.90
23544;DHT22;11950;51.230;4.012;2023-06-19T04:03:36;20.70;99.90
23544;DHT22;11950;51.230;4.012;2023-06-19T04:06:02;20.70;99.90
23544;DHT22;11950;51.230;4.012;2023-06-19T04:08:28;20.60;99.90
23544;DHT22;11950;51.230;4.012;2023-06-19T04:10:54;20.70;99.90
23544;DHT22;11950;51.230;4.012;2023-06-19T04:13:21;20.60;99.90
23544;DHT22;11950;51.230;4.012;2023-06-19T04:15:47;20.60;99.90
23544;DHT22;11950;51.230;4.012;2023-06-19T04:18:14;20.50;99.90
23544;DHT22;11950;51.230;4.012;2023-06-19T04:20:40;20.50;99.90
23544;DHT22;11950;51.230;4.012;2023-06-19T04:23:06;20.50;99.90
23544;DHT22;11950;51.230;4.012;2023-06-19T04:25:33;20.50;99.90
23544;DHT22;11950;51.230;4.012;2023-06-19T04:27:59;20.50;99.90
23544;DHT22;11950;51.230;4.012;2023-06-19T04:30:25;20.50;99.90
23544;DHT22;11950;51.230;4.012;2023-06-19T04:32:51;20.50;99.90
23544;DHT22;11950;51.230;4.012;2023-06-19T04:35:19;20.50;99.90
23544;DHT22;11950;51.230;4.012;2023-06-19T04:37:45;20.50;99.90
23544;DHT22;11950;51.230;4.012;2023-06-19T04:40:14;20.50;99.90
23544;DHT22;11950;51.230;4.012;2023-06-19T04:42:40;20.50;99.90
23544;DHT22;11950;51.230;4.012;2023-06-19T04:45:07;20.50;99.90
23544;DHT22;11950;51.230;4.012;2023-06-19T04:47:33;20.50;99.90
23544;DHT22;11950;51.230;4.012;2023-06-19T04:50:00;20.50;99.90
23544;DHT22;11950;51.230;4.012;2023-06-19T04:52:26;20.40;99.90
23544;DHT22;11950;51.230;4.012;2023-06-19T04:54:52;20.40;99.90
23544;DHT22;11950;51.230;4.012;2023-06-19T04:57:19;20.40;99.90
23544;DHT22;11950;51.230;4.012;2023-06-19T04:59:45;20.40;99.90
23544;DHT22;11950;51.230;4.012;2023-06-19T05:02:11;20.40;99.90
23544;DHT22;11950;51.230;4.012;2023-06-19T05:04:38;20.40;99.90
23544;DHT22;11950;51.230;4.012;2023-06-19T05:07:04;20.40;99.90
23544;DHT22;11950;51.230;4.012;2023-06-19T05:09:32;20.40;99.90
23544;DHT22;11950;51.230;4.012;2023-06-19T05:11:58;20.40;99.90
23544;DHT22;11950;51.230;4.012;2023-06-19T05:14:24;20.40;99.90
23544;DHT22;11950;51.230;4.012;2023-06-19T05:16:50;20.40;99.90
23544;DHT22;11950;51.230;4.012;2023-06-19T05:19:17;20.40;99.90
23544;DHT22;11950;51.230;4.012;2023-06-19T05:21:43;20.40;99.90
23544;DHT22;11950;51.230;4.012;2023-06-19T05:24:09;20.40;99.90
23544;DHT22;11950;51.230;4.012;2023-06-19T05:26:35;20.40;99.90
23544;DHT22;11950;51.230;4.012;2023-06-19T05:29:02;20.40;99.90
23544;DHT22;11950;51.230;4.012;2023-06-19T05:31:28;20.40;99.90
23544;DHT22;11950;51.230;4.012;2023-06-19T05:33:54;20.30;99.90
23544;DHT22;11950;51.230;4.012;2023-06-19T05:36:21;20.30;99.90
23544;DHT22;11950;51.230;4.012;2023-06-19T05:38:47;20.40;99.90
23544;DHT22;11950;51.230;4.012;2023-06-19T05:41:14;20.40;99.90
23544;DHT22;11950;51.230;4.012;2023-06-19T05:43:40;20.40;99.90
23544;DHT22;11950;51.230;4.012;2023-06-19T05:46:06;20.40;99.90
23544;DHT22;11950;51.230;4.012;2023-06-19T05:48:33;20.40;99.90
23544;DHT22;11950;51.230;4.012;2023-06-19T05:50:59;20.40;99.90
23544;DHT22;11950;51.230;4.012;2023-06-19T05:53:25;20.40;99.90
23544;DHT22;11950;51.230;4.012;2023-06-19T05:55:51;20.40;99.90
23544;DHT22;11950;51.230;4.012;2023-06-19T05:58:18;20.40;99.90
23544;DHT22;11950;51.230;4.012;2023-06-19T06:00:47;20.40;99.90
23544;DHT22;11950;51.230;4.012;2023-06-19T06:03:13;20.40;99.90
23544;DHT22;11950;51.230;4.012;2023-06-19T06:05:39;20.50;99.90
23544;DHT22;11950;51.230;4.012;2023-06-19T06:08:06;20.50;99.90
23544;DHT22;11950;51.230;4.012;2023-06-19T06:10:36;20.60;99.90
23544;DHT22;11950;51.230;4.012;2023-06-19T06:13:04;20.60;99.90
23544;DHT22;11950;51.230;4.012;2023-06-19T06:15:30;20.70;99.90
23544;DHT22;11950;51.230;4.012;2023-06-19T06:17:57;20.70;99.90
23544;DHT22;11950;51.230;4.012;2023-06-19T06:20:23;20.80;99.90
23544;DHT22;11950;51.230;4.012;2023-06-19T06:22:49;20.90;99.90
23544;DHT22;11950;51.230;4.012;2023-06-19T06:25:15;20.90;99.90
23544;DHT22;11950;51.230;4.012;2023-06-19T06:27:42;21.00;99.90
23544;DHT22;11950;51.230;4.012;2023-06-19T06:30:09;21.00;99.90
23544;DHT22;11950;51.230;4.012;2023-06-19T06:32:37;21.00;99.90
23544;DHT22;11950;51.230;4.012;2023-06-19T06:35:03;21.10;99.90
23544;DHT22;11950;51.230;4.012;2023-06-19T06:37:30;21.10;99.90
23544;DHT22;11950;51.230;4.012;2023-06-19T06:39:56;21.10;99.90
23544;DHT22;11950;51.230;4.012;2023-06-19T06:42:22;21.10;99.90
23544;DHT22;11950;51.230;4.012;2023-06-19T06:44:49;21.10;99.90
23544;DHT22;11950;51.230;4.012;2023-06-19T06:47:15;21.10;99.90
23544;DHT22;11950;51.230;4.012;2023-06-19T06:49:41;21.10;99.90
23544;DHT22;11950;51.230;4.012;2023-06-19T06:52:08;21.10;99.90
23544;DHT22;11950;51.230;4.012;2023-06-19T06:54:34;21.10;99.90
23544;DHT22;11950;51.230;4.012;2023-06-19T06:57:00;21.10;99.90
23544;DHT22;11950;51.230;4.012;2023-06-19T06:59:27;21.00;99.90
23544;DHT22;11950;51.230;4.012;2023-06-19T07:01:54;20.90;99.90
23544;DHT22;11950;51.230;4.012;2023-06-19T07:04:20;21.00;99.90
23544;DHT22;11950;51.230;4.012;2023-06-19T07:06:47;21.00;99.90
23544;DHT22;11950;51.230;4.012;2023-06-19T07:09:14;21.00;99.90
23544;DHT22;11950;51.230;4.012;2023-06-19T07:11:41;21.10;99.90
23544;DHT22;11950;51.230;4.012;2023-06-19T07:14:07;21.00;99.90
23544;DHT22;11950;51.230;4.012;2023-06-19T07:16:33;21.10;99.90
23544;DHT22;11950;51.230;4.012;2023-06-19T07:18:59;21.10;99.90
23544;DHT22;11950;51.230;4.012;2023-06-19T07:21:28;21.10;99.90
23544;DHT22;11950;51.230;4.012;2023-06-19T07:23:54;21.10;99.90
23544;DHT22;11950;51.230;4.012;2023-06-19T07:26:21;21.10;99.90
23544;DHT22;11950;51.230;4.012;2023-06-19T07:28:47;21.10;99.90
23544;DHT22;11950;51.230;4.012;2023-06-19T07:31:13;21.10;99.90
23544;DHT22;11950;51.230;4.012;2023-06-19T07:33:40;21.10;99.90
23544;DHT22;11950;51.230;4.012;2023-06-19T07:36:06;21.10;99.90
23544;DHT22;11950;51.230;4.012;2023-06-19T07:38:32;21.30;99.90
23544;DHT22;11950;51.230;4.012;2023-06-19T07:40:58;21.40;99.90
23544;DHT22;11950;51.230;4.012;2023-06-19T07:43:25;21.50;99.90
23544;DHT22;11950;51.230;4.012;2023-06-19T07:45:51;21.60;99.90
23544;DHT22;11950;51.230;4.012;2023-06-19T07:48:17;21.60;99.90
23544;DHT22;11950;51.230;4.012;2023-06-19T07:50:43;21.70;99.90
23544;DHT22;11950;51.230;4.012;2023-06-19T07:53:10;21.70;99.90
23544;DHT22;11950;51.230;4.012;2023-06-19T07:55:36;21.70;99.90
23544;DHT22;11950;51.230;4.012;2023-06-19T07:58:02;21.80;99.90
23544;DHT22;11950;51.230;4.012;2023-06-19T08:00:28;21.90;99.90
23544;DHT22;11950;51.230;4.012;2023-06-19T08:02:54;21.90;99.90
23544;DHT22;11950;51.230;4.012;2023-06-19T08:05:21;21.90;99.90
23544;DHT22;11950;51.230;4.012;2023-06-19T08:07:47;21.90;99.90
23544;DHT22;11950;51.230;4.012;2023-06-19T08:10:13;22.00;99.90
23544;DHT22;11950;51.230;4.012;2023-06-19T08:12:43;22.00;99.90
23544;DHT22;11950;51.230;4.012;2023-06-19T08:15:11;22.00;99.90
23544;DHT22;11950;51.230;4.012;2023-06-19T08:17:37;22.00;99.90
23544;DHT22;11950;51.230;4.012;2023-06-19T08:20:04;22.10;99.90
23544;DHT22;11950;51.230;4.012;2023-06-19T08:22:31;22.10;99.90
23544;DHT22;11950;51.230;4.012;2023-06-19T08:24:57;22.10;99.90
23544;DHT22;11950;51.230;4.012;2023-06-19T08:27:23;22.20;99.90
23544;DHT22;11950;51.230;4.012;2023-06-19T08:29:50;22.20;99.90
23544;DHT22;11950;51.230;4.012;2023-06-19T08:32:16;22.20;99.90
23544;DHT22;11950;51.230;4.012;2023-06-19T08:34:42;22.20;99.90
23544;DHT22;11950;51.230;4.012;2023-06-19T08:37:09;22.20;99.90
23544;DHT22;11950;51.230;4.012;2023-06-19T08:39:35;22.10;99.90
23544;DHT22;11950;51.230;4.012;2023-06-19T08:42:08;22.20;99.90
23544;DHT22;11950;51.230;4.012;2023-06-19T08:44:38;22.20;99.90
23544;DHT22;11950;51.230;4.012;2023-06-19T08:47:05;22.20;99.90
23544;DHT22;11950;51.230;4.012;2023-06-19T08:49:33;22.20;99.90
23544;DHT22;11950;51.230;4.012;2023-06-19T08:52:02;22.30;99.90
23544;DHT22;11950;51.230;4.012;2023-06-19T08:54:28;22.40;99.90
23544;DHT22;11950;51.230;4.012;2023-06-19T08:56:55;22.60;99.90
23544;DHT22;11950;51.230;4.012;2023-06-19T08:59:21;22.80;99.90
23544;DHT22;11950;51.230;4.012;2023-06-19T09:04:24;23.10;99.90
23544;DHT22;11950;51.230;4.012;2023-06-19T09:06:56;23.30;99.90
23544;DHT22;11950;51.230;4.012;2023-06-19T09:09:24;23.50;99.90
23544;DHT22;11950;51.230;4.012;2023-06-19T09:12:05;23.60;99.90
23544;DHT22;11950;51.230;4.012;2023-06-19T09:14:39;23.70;99.90
23544;DHT22;11950;51.230;4.012;2023-06-19T09:17:10;23.80;99.90
23544;DHT22;11950;51.230;4.012;2023-06-19T09:19:36;23.80;99.90
23544;DHT22;11950;51.230;4.012;2023-06-19T09:22:04;23.90;99.90
23544;DHT22;11950;51.230;4.012;2023-06-19T09:24:35;24.00;99.90
23544;DHT22;11950;51.230;4.012;2023-06-19T09:27:20;24.10;99.90
23544;DHT22;11950;51.230;4.012;2023-06-19T09:29:49;24.10;99.90
23544;DHT22;11950;51.230;4.012;2023-06-19T09:32:26;24.10;99.90
23544;DHT22;11950;51.230;4.012;2023-06-19T09:34:57;24.10;99.90
23544;DHT22;11950;51.230;4.012;2023-06-19T09:37:28;24.10;99.90
23544;DHT22;11950;51.230;4.012;2023-06-19T09:42:32;24.10;99.90
23544;DHT22;11950;51.230;4.012;2023-06-19T09:45:00;24.10;99.90
23544;DHT22;11950;51.230;4.012;2023-06-19T09:47:32;24.10;99.90
23544;DHT22;11950;51.230;4.012;2023-06-19T09:50:00;24.20;99.90
23544;DHT22;11950;51.230;4.012;2023-06-19T09:52:27;24.20;99.90
23544;DHT22;11950;51.230;4.012;2023-06-19T09:55:03;24.30;99.90
23544;DHT22;11950;51.230;4.012;2023-06-19T09:57:32;24.30;99.90
23544;DHT22;11950;51.230;4.012;2023-06-19T09:59:59;24.40;99.90
23544;DHT22;11950;51.230;4.012;2023-06-19T10:02:44;24.50;99.90
23544;DHT22;11950;51.230;4.012;2023-06-19T10:05:10;24.60;99.90
23544;DHT22;11950;51.230;4.012;2023-06-19T10:07:46;24.60;99.90
23544;DHT22;11950;51.230;4.012;2023-06-19T10:10:23;24.60;99.90
23544;DHT22;11950;51.230;4.012;2023-06-19T10:12:51;24.50;99.90
23544;DHT22;11950;51.230;4.012;2023-06-19T10:15:25;24.60;99.90
23544;DHT22;11950;51.230;4.012;2023-06-19T10:18:06;24.60;99.90
23544;DHT22;11950;51.230;4.012;2023-06-19T10:20:37;24.80;99.90
23544;DHT22;11950;51.230;4.012;2023-06-19T10:25:49;25.10;99.90
23544;DHT22;11950;51.230;4.012;2023-06-19T10:28:25;25.20;99.90
23544;DHT22;11950;51.230;4.012;2023-06-19T10:31:08;25.20;99.90
23544;DHT22;11950;51.230;4.012;2023-06-19T10:33:36;25.40;99.90
23544;DHT22;11950;51.230;4.012;2023-06-19T10:36:23;25.50;99.90
23544;DHT22;11950;51.230;4.012;2023-06-19T10:38:51;25.60;99.90
23544;DHT22;11950;51.230;4.012;2023-06-19T10:41:25;25.60;99.90
23544;DHT22;11950;51.230;4.012;2023-06-19T10:46:25;25.40;99.90
23544;DHT22;11950;51.230;4.012;2023-06-19T10:48:55;25.30;99.90
23544;DHT22;11950;51.230;4.012;2023-06-19T10:51:27;25.30;99.90
23544;DHT22;11950;51.230;4.012;2023-06-19T10:53:55;25.30;99.90
23544;DHT22;11950;51.230;4.012;2023-06-19T10:56:23;25.30;99.90
23544;DHT22;11950;51.230;4.012;2023-06-19T10:58:57;25.40;99.90
23544;DHT22;11950;51.230;4.012;2023-06-19T11:01:34;25.40;99.90
23544;DHT22;11950;51.230;4.012;2023-06-19T11:04:07;25.50;99.90
23544;DHT22;11950;51.230;4.012;2023-06-19T11:06:34;25.50;99.90
23544;DHT22;11950;51.230;4.012;2023-06-19T11:09:00;25.50;99.90
23544;DHT22;11950;51.230;4.012;2023-06-19T11:14:05;25.70;99.90
23544;DHT22;11950;51.230;4.012;2023-06-19T11:16:33;25.80;99.90
23544;DHT22;11950;51.230;4.012;2023-06-19T11:19:00;25.90;99.90
23544;DHT22;11950;51.230;4.012;2023-06-19T11:21:30;25.90;99.90
23544;DHT22;11950;51.230;4.012;2023-06-19T11:23:59;26.00;99.90
23544;DHT22;11950;51.230;4.012;2023-06-19T11:26:25;26.10;99.90
23544;DHT22;11950;51.230;4.012;2023-06-19T11:28:51;26.20;99.90
23544;DHT22;11950;51.230;4.012;2023-06-19T11:31:25;26.30;99.90
23544;DHT22;11950;51.230;4.012;2023-06-19T11:34:01;26.40;99.90
23544;DHT22;11950;51.230;4.012;2023-06-19T11:36:30;26.50;99.90
23544;DHT22;11950;51.230;4.012;2023-06-19T11:38:56;26.60;99.90
23544;DHT22;11950;51.230;4.012;2023-06-19T11:41:29;26.60;99.90
23544;DHT22;11950;51.230;4.012;2023-06-19T11:44:05;26.60;99.90
23544;DHT22;11950;51.230;4.012;2023-06-19T11:46:33;26.50;99.90
23544;DHT22;11950;51.230;4.012;2023-06-19T11:49:15;26.40;99.90
23544;DHT22;11950;51.230;4.012;2023-06-19T11:51:44;26.50;99.90
23544;DHT22;11950;51.230;4.012;2023-06-19T11:54:12;26.60;99.90
23544;DHT22;11950;51.230;4.012;2023-06-19T11:56:40;26.70;99.90
23544;DHT22;11950;51.230;4.012;2023-06-19T11:59:07;26.80;99.90
23544;DHT22;11950;51.230;4.012;2023-06-19T12:01:35;26.90;99.90
23544;DHT22;11950;51.230;4.012;2023-06-19T12:04:02;26.80;99.90
23544;DHT22;11950;51.230;4.012;2023-06-19T12:06:29;26.70;99.90
23544;DHT22;11950;51.230;4.012;2023-06-19T12:08:56;26.60;99.90
23544;DHT22;11950;51.230;4.012;2023-06-19T12:11:22;26.50;99.90
23544;DHT22;11950;51.230;4.012;2023-06-19T12:13:49;26.50;99.90
23544;DHT22;11950;51.230;4.012;2023-06-19T12:16:15;26.50;99.90
23544;DHT22;11950;51.230;4.012;2023-06-19T12:18:41;26.60;99.90
23544;DHT22;11950;51.230;4.012;2023-06-19T12:21:08;26.70;99.90
23544;DHT22;11950;51.230;4.012;2023-06-19T12:23:34;26.80;99.90
23544;DHT22;11950;51.230;4.012;2023-06-19T12:26:01;26.90;99.90
23544;DHT22;11950;51.230;4.012;2023-06-19T12:28:27;26.90;99.90
23544;DHT22;11950;51.230;4.012;2023-06-19T12:30:53;27.00;99.90
23544;DHT22;11950;51.230;4.012;2023-06-19T12:33:22;27.00;99.90
23544;DHT22;11950;51.230;4.012;2023-06-19T12:35:48;27.10;99.90
23544;DHT22;11950;51.230;4.012;2023-06-19T12:38:14;27.10;99.90
23544;DHT22;11950;51.230;4.012;2023-06-19T12:40:41;27.10;99.90
23544;DHT22;11950;51.230;4.012;2023-06-19T12:43:07;27.10;99.90
23544;DHT22;11950;51.230;4.012;2023-06-19T12:45:33;27.10;99.90
23544;DHT22;11950;51.230;4.012;2023-06-19T12:48:00;27.10;99.90
23544;DHT22;11950;51.230;4.012;2023-06-19T12:50:26;26.90;99.90
23544;DHT22;11950;51.230;4.012;2023-06-19T12:52:52;27.00;99.90
23544;DHT22;11950;51.230;4.012;2023-06-19T12:55:19;27.10;99.90
23544;DHT22;11950;51.230;4.012;2023-06-19T12:57:45;27.10;99.90
23544;DHT22;11950;51.230;4.012;2023-06-19T13:00:12;27.10;99.90
23544;DHT22;11950;51.230;4.012;2023-06-19T13:02:40;27.00;99.90
23544;DHT22;11950;51.230;4.012;2023-06-19T13:05:07;27.00;99.90
23544;DHT22;11950;51.230;4.012;2023-06-19T13:07:33;26.90;99.90
23544;DHT22;11950;51.230;4.012;2023-06-19T13:09:59;26.80;99.90
23544;DHT22;11950;51.230;4.012;2023-06-19T13:12:25;26.80;99.90
23544;DHT22;11950;51.230;4.012;2023-06-19T13:14:52;26.80;99.90
23544;DHT22;11950;51.230;4.012;2023-06-19T13:17:19;26.90;99.90
23544;DHT22;11950;51.230;4.012;2023-06-19T13:19:45;26.90;99.90
23544;DHT22;11950;51.230;4.012;2023-06-19T13:22:11;27.10;99.90
23544;DHT22;11950;51.230;4.012;2023-06-19T13:24:37;27.00;99.90
23544;DHT22;11950;51.230;4.012;2023-06-19T13:27:04;27.00;99.90
23544;DHT22;11950;51.230;4.012;2023-06-19T13:29:30;27.00;99.90
23544;DHT22;11950;51.230;4.012;2023-06-19T13:31:56;27.10;99.90
23544;DHT22;11950;51.230;4.012;2023-06-19T13:34:23;27.30;99.90
23544;DHT22;11950;51.230;4.012;2023-06-19T13:36:49;27.30;99.90
23544;DHT22;11950;51.230;4.012;2023-06-19T13:39:17;27.40;99.90
23544;DHT22;11950;51.230;4.012;2023-06-19T13:41:46;27.40;99.90
23544;DHT22;11950;51.230;4.012;2023-06-19T13:44:12;27.50;99.90
23544;DHT22;11950;51.230;4.012;2023-06-19T13:46:39;27.60;99.90
23544;DHT22;11950;51.230;4.012;2023-06-19T13:49:05;27.60;99.90
23544;DHT22;11950;51.230;4.012;2023-06-19T13:51:31;27.70;99.90
23544;DHT22;11950;51.230;4.012;2023-06-19T13:53:58;27.70;99.90
23544;DHT22;11950;51.230;4.012;2023-06-19T13:56:24;27.70;99.90
23544;DHT22;11950;51.230;4.012;2023-06-19T13:58:51;27.80;99.90
23544;DHT22;11950;51.230;4.012;2023-06-19T14:01:17;27.80;99.90
23544;DHT22;11950;51.230;4.012;2023-06-19T14:03:43;27.90;99.90
23544;DHT22;11950;51.230;4.012;2023-06-19T14:06:10;27.90;99.90
23544;DHT22;11950;51.230;4.012;2023-06-19T14:08:36;28.00;99.90
23544;DHT22;11950;51.230;4.012;2023-06-19T14:11:02;28.00;99.90
23544;DHT22;11950;51.230;4.012;2023-06-19T14:13:28;28.10;99.90
23544;DHT22;11950;51.230;4.012;2023-06-19T14:15:55;28.00;99.90
23544;DHT22;11950;51.230;4.012;2023-06-19T14:18:21;27.90;99.90
23544;DHT22;11950;51.230;4.012;2023-06-19T14:20:47;27.80;99.90
23544;DHT22;11950;51.230;4.012;2023-06-19T14:23:13;27.70;99.90
23544;DHT22;11950;51.230;4.012;2023-06-19T14:25:40;27.60;99.90
23544;DHT22;11950;51.230;4.012;2023-06-19T14:28:07;27.60;99.90
23544;DHT22;11950;51.230;4.012;2023-06-19T14:30:33;27.60;99.90
23544;DHT22;11950;51.230;4.012;2023-06-19T14:32:59;27.70;99.90
23544;DHT22;11950;51.230;4.012;2023-06-19T14:35:25;27.70;99.90
23544;DHT22;11950;51.230;4.012;2023-06-19T14:37:51;27.80;99.90
23544;DHT22;11950;51.230;4.012;2023-06-19T14:40:18;27.90;99.90
23544;DHT22;11950;51.230;4.012;2023-06-19T14:42:44;27.90;99.90
23544;DHT22;11950;51.230;4.012;2023-06-19T14:45:10;27.90;99.90
23544;DHT22;11950;51.230;4.012;2023-06-19T14:47:37;28.00;99.90
23544;DHT22;11950;51.230;4.012;2023-06-19T14:50:03;27.90;99.90
23544;DHT22;11950;51.230;4.012;2023-06-19T14:52:29;27.80;99.90
23544;DHT22;11950;51.230;4.012;2023-06-19T14:54:57;27.70;99.90
23544;DHT22;11950;51.230;4.012;2023-06-19T14:57:25;27.70;99.90
23544;DHT22;11950;51.230;4.012;2023-06-19T14:59:52;27.60;99.90
23544;DHT22;11950;51.230;4.012;2023-06-19T15:02:18;27.50;99.90
23544;DHT22;11950;51.230;4.012;2023-06-19T15:04:44;27.50;99.90
23544;DHT22;11950;51.230;4.012;2023-06-19T15:07:10;27.40;99.90
23544;DHT22;11950;51.230;4.012;2023-06-19T15:09:37;27.40;99.90
23544;DHT22;11950;51.230;4.012;2023-06-19T15:12:03;27.40;99.90
23544;DHT22;11950;51.230;4.012;2023-06-19T15:14:30;27.40;99.90
23544;DHT22;11950;51.230;4.012;2023-06-19T15:16:56;27.40;99.90
23544;DHT22;11950;51.230;4.012;2023-06-19T15:19:22;27.40;99.90
23544;DHT22;11950;51.230;4.012;2023-06-19T15:21:50;27.40;99.90
23544;DHT22;11950;51.230;4.012;2023-06-19T15:24:16;27.40;99.90
23544;DHT22;11950;51.230;4.012;2023-06-19T15:26:42;27.40;99.90
23544;DHT22;11950;51.230;4.012;2023-06-19T15:29:10;27.30;99.90
23544;DHT22;11950;51.230;4.012;2023-06-19T15:31:36;27.30;99.90
23544;DHT22;11950;51.230;4.012;2023-06-19T15:34:04;27.20;99.90
23544;DHT22;11950;51.230;4.012;2023-06-19T15:36:30;27.20;99.90
23544;DHT22;11950;51.230;4.012;2023-06-19T15:38:56;27.20;99.90
23544;DHT22;11950;51.230;4.012;2023-06-19T15:41:22;27.20;99.90
23544;DHT22;11950;51.230;4.012;2023-06-19T15:43:49;27.20;99.90
23544;DHT22;11950;51.230;4.012;2023-06-19T15:46:16;27.20;99.90